Time;durP1;ratioP1;P1;durP2;ratioP2;P2;SDS_P1;SDS_P2;PMS_P1;PMS_P2;Temp;Humidity;BMP_temperature;BMP_pressure;BME280_temperature;BME280_humidity;BME280_pressure;Samples;Min_cycle;Max_cycle;Signal;HPM_P1;HPM_P2
2021/09/05 00:00:50;;;;;;;8.80;7.90;;;15.60;99.90;;;;;;4963171;28;20534;-81
2021/09/05 00:03:17;;;;;;;9.43;8.63;;;15.50;99.90;;;;;;4962410;29;20474;-80
2021/09/05 00:05:45;;;;;;;9.07;8.27;;;15.50;99.90;;;;;;4962896;28;20498;-80
2021/09/05 00:08:12;;;;;;;8.17;7.20;;;15.50;99.90;;;;;;4959473;29;20455;-80
2021/09/05 00:10:39;;;;;;;10.23;9.17;;;15.50;99.90;;;;;;4948537;29;20447;-80
2021/09/05 00:13:05;;;;;;;9.63;8.53;;;15.50;99.90;;;;;;4953639;29;20479;-81
2021/09/05 00:15:32;;;;;;;8.00;7.33;;;15.40;99.90;;;;;;4956572;29;20452;-79
2021/09/05 00:17:59;;;;;;;7.73;7.13;;;15.40;99.90;;;;;;4953711;29;20462;-79
2021/09/05 00:20:26;;;;;;;8.63;7.60;;;15.40;99.90;;;;;;4950923;29;20455;-80
2021/09/05 00:22:54;;;;;;;9.60;8.60;;;15.30;99.90;;;;;;4958894;29;20896;-81
2021/09/05 00:25:21;;;;;;;10.20;9.30;;;15.40;99.90;;;;;;4956686;29;20447;-81
2021/09/05 00:27:48;;;;;;;8.03;7.23;;;15.30;99.90;;;;;;4961697;29;20493;-80
2021/09/05 00:30:14;;;;;;;8.80;7.27;;;15.30;99.90;;;;;;4961605;29;20451;-79
2021/09/05 00:32:41;;;;;;;8.77;8.00;;;15.30;99.90;;;;;;4955457;29;20450;-81
2021/09/05 00:35:09;;;;;;;9.23;8.13;;;15.30;99.90;;;;;;4955472;29;20444;-81
2021/09/05 00:37:35;;;;;;;9.20;8.30;;;15.20;99.90;;;;;;4961505;28;20448;-81
2021/09/05 00:40:04;;;;;;;10.10;8.70;;;15.20;99.90;;;;;;4956158;29;20454;-80
2021/09/05 00:42:31;;;;;;;9.50;8.50;;;15.20;99.90;;;;;;4967638;29;20468;-81
2021/09/05 00:44:58;;;;;;;9.53;8.63;;;15.20;99.90;;;;;;4968234;28;20454;-80
2021/09/05 00:47:24;;;;;;;8.00;7.27;;;15.10;99.90;;;;;;4968236;29;20492;-81
2021/09/05 00:49:51;;;;;;;9.57;8.07;;;15.10;99.90;;;;;;4967271;29;20455;-81
2021/09/05 00:52:19;;;;;;;9.60;8.60;;;15.10;99.90;;;;;;4966149;29;20466;-81
2021/09/05 00:54:47;;;;;;;7.90;7.10;;;15.10;99.90;;;;;;4967877;29;20514;-81
2021/09/05 00:57:17;;;;;;;9.77;8.77;;;15.10;99.90;;;;;;4967417;29;20455;-81
2021/09/05 00:59:47;;;;;;;10.20;8.40;;;15.10;99.90;;;;;;4967222;29;20458;-81
2021/09/05 01:02:14;;;;;;;9.37;8.37;;;15.00;99.90;;;;;;4967435;29;20457;-80
2021/09/05 01:04:41;;;;;;;9.50;8.70;;;15.00;99.90;;;;;;4968149;29;20482;-80
2021/09/05 01:07:08;;;;;;;9.80;8.80;;;15.00;99.90;;;;;;4967375;29;20496;-80
2021/09/05 01:09:36;;;;;;;8.63;7.83;;;15.00;99.90;;;;;;4967052;29;21024;-80
2021/09/05 01:12:04;;;;;;;9.03;8.20;;;15.00;99.90;;;;;;4966621;28;20452;-81
2021/09/05 01:14:32;;;;;;;8.83;8.10;;;15.00;99.90;;;;;;4967611;29;20479;-80
2021/09/05 01:16:59;;;;;;;10.87;8.00;;;15.00;99.90;;;;;;4967031;29;20448;-81
2021/09/05 01:19:26;;;;;;;8.17;7.47;;;15.00;99.90;;;;;;4966847;29;20460;-81
2021/09/05 01:21:53;;;;;;;9.03;8.13;;;14.90;99.90;;;;;;4966619;28;20458;-81
2021/09/05 01:24:22;;;;;;;8.27;7.47;;;14.90;99.90;;;;;;4968464;28;20483;-81
2021/09/05 01:26:51;;;;;;;7.97;7.27;;;14.80;99.90;;;;;;4967559;29;20486;-81
2021/09/05 01:29:20;;;;;;;8.40;7.60;;;14.80;99.90;;;;;;4968269;29;20463;-81
2021/09/05 01:31:49;;;;;;;9.13;8.23;;;14.80;99.90;;;;;;4968667;28;20458;-81
2021/09/05 01:34:17;;;;;;;7.23;6.53;;;14.70;99.90;;;;;;4970908;29;20466;-81
2021/09/05 01:36:45;;;;;;;9.17;8.10;;;14.70;99.90;;;;;;4971184;29;20462;-81
2021/09/05 01:39:13;;;;;;;9.67;7.87;;;14.70;99.90;;;;;;4971597;29;20461;-81
2021/09/05 01:41:41;;;;;;;7.70;7.00;;;14.70;99.90;;;;;;4970448;28;20521;-81
2021/09/05 01:44:11;;;;;;;9.60;8.60;;;14.70;99.90;;;;;;4970785;29;20482;-81
2021/09/05 01:46:39;;;;;;;8.73;6.97;;;14.60;99.90;;;;;;4971021;29;20489;-81
2021/09/05 01:49:07;;;;;;;8.10;7.50;;;14.60;99.90;;;;;;4970594;29;20456;-81
2021/09/05 01:51:34;;;;;;;8.50;7.57;;;14.60;99.90;;;;;;4969135;28;20472;-81
2021/09/05 01:54:03;;;;;;;9.13;8.27;;;14.60;99.90;;;;;;4975424;23;20536;-83
2021/09/05 01:56:31;;;;;;;8.57;7.87;;;14.60;99.90;;;;;;4948379;29;20456;-83
2021/09/05 01:58:59;;;;;;;7.10;6.40;;;14.50;99.90;;;;;;4948612;29;20453;-83
2021/09/05 02:01:29;;;;;;;7.50;6.90;;;14.50;99.90;;;;;;4948101;29;20468;-83
2021/09/05 02:04:03;;;;;;;8.13;7.33;;;14.50;99.90;;;;;;4948620;29;20477;-83
2021/09/05 02:06:30;;;;;;;9.40;7.43;;;14.50;99.90;;;;;;4948914;29;20502;-82
2021/09/05 02:08:57;;;;;;;7.43;6.73;;;14.50;99.90;;;;;;4948994;29;20459;-83
2021/09/05 02:11:25;;;;;;;8.50;7.70;;;14.40;99.90;;;;;;4947845;29;21036;-82
2021/09/05 02:13:54;;;;;;;8.53;7.50;;;14.40;99.90;;;;;;4948673;29;20478;-83
2021/09/05 02:16:21;;;;;;;8.17;7.40;;;14.40;99.90;;;;;;4948297;29;20466;-83
2021/09/05 02:18:48;;;;;;;8.63;7.93;;;14.40;99.90;;;;;;4948763;29;20459;-83
2021/09/05 02:21:20;;;;;;;8.00;7.27;;;14.40;99.90;;;;;;4947246;29;20446;-83
2021/09/05 02:23:47;;;;;;;9.73;8.73;;;14.40;99.90;;;;;;4948238;29;20474;-83
2021/09/05 02:26:14;;;;;;;8.23;7.30;;;14.30;99.90;;;;;;4947771;29;20453;-83
2021/09/05 02:28:41;;;;;;;8.77;7.87;;;14.30;99.90;;;;;;4947979;29;20569;-83
2021/09/05 02:31:08;;;;;;;7.67;7.00;;;14.30;99.90;;;;;;4948015;29;20486;-83
2021/09/05 02:33:35;;;;;;;8.00;7.20;;;14.30;99.90;;;;;;4946533;29;20490;-82
2021/09/05 02:36:02;;;;;;;7.73;7.00;;;14.30;99.90;;;;;;4947068;29;20465;-83
2021/09/05 02:38:30;;;;;;;9.03;8.27;;;14.20;99.90;;;;;;4947001;29;20469;-83
2021/09/05 02:40:59;;;;;;;8.80;8.00;;;14.20;99.90;;;;;;4948215;29;20462;-83
2021/09/05 02:43:26;;;;;;;8.33;7.60;;;14.20;99.90;;;;;;4945452;29;20485;-83
2021/09/05 02:45:57;;;;;;;11.97;10.83;;;14.20;99.90;;;;;;4947469;29;20451;-83
2021/09/05 02:48:24;;;;;;;11.47;10.40;;;14.20;99.90;;;;;;4946759;29;20491;-83
2021/09/05 02:50:51;;;;;;;12.00;10.90;;;14.20;99.90;;;;;;4948398;29;20469;-82
2021/09/05 02:53:17;;;;;;;11.27;10.13;;;14.10;99.90;;;;;;4946321;29;20826;-83
2021/09/05 02:55:45;;;;;;;13.23;11.97;;;14.10;99.90;;;;;;4947093;29;20459;-83
2021/09/05 02:58:12;;;;;;;13.30;12.03;;;14.20;99.90;;;;;;4947313;29;20568;-83
2021/09/05 03:00:39;;;;;;;12.23;11.03;;;14.20;99.90;;;;;;4948047;29;20454;-82
2021/09/05 03:03:06;;;;;;;11.80;10.60;;;14.20;99.90;;;;;;4946725;29;20950;-83
2021/09/05 03:05:34;;;;;;;12.47;9.87;;;14.10;99.90;;;;;;4946612;29;20459;-83
2021/09/05 03:08:01;;;;;;;10.83;9.83;;;14.20;99.90;;;;;;4946801;29;20494;-83
2021/09/05 03:10:28;;;;;;;9.30;8.50;;;14.20;99.90;;;;;;4946494;29;21001;-83
2021/09/05 03:12:56;;;;;;;11.40;10.07;;;14.10;99.90;;;;;;4946029;29;20458;-83
2021/09/05 03:15:23;;;;;;;8.93;8.10;;;14.10;99.90;;;;;;4945839;29;20487;-83
2021/09/05 03:17:49;;;;;;;9.43;8.47;;;14.10;99.90;;;;;;4946615;29;20447;-83
2021/09/05 03:20:17;;;;;;;10.67;9.17;;;14.10;99.90;;;;;;4946164;29;20453;-82
2021/09/05 03:22:45;;;;;;;8.90;8.10;;;14.10;99.90;;;;;;4946471;29;20460;-82
2021/09/05 03:25:12;;;;;;;9.20;8.33;;;14.10;99.90;;;;;;4949848;29;20482;-82
2021/09/05 03:27:38;;;;;;;10.00;9.07;;;14.10;99.90;;;;;;4955890;29;20474;-82
2021/09/05 03:30:08;;;;;;;10.20;8.97;;;14.10;99.90;;;;;;4952289;29;20481;-82
2021/09/05 03:32:35;;;;;;;10.30;9.27;;;14.10;99.90;;;;;;4946506;29;20464;-82
2021/09/05 03:35:02;;;;;;;9.20;8.30;;;14.00;99.90;;;;;;4948354;29;20475;-82
2021/09/05 03:37:32;;;;;;;10.90;9.80;;;14.10;99.90;;;;;;4947470;29;20463;-82
2021/09/05 03:39:59;;;;;;;10.40;9.43;;;14.00;99.90;;;;;;4947186;29;20477;-82
2021/09/05 03:42:25;;;;;;;11.73;9.20;;;14.00;99.90;;;;;;4946372;29;20454;-81
2021/09/05 03:44:52;;;;;;;13.03;9.77;;;14.00;99.90;;;;;;4947230;29;21005;-81
2021/09/05 03:47:20;;;;;;;9.70;8.90;;;14.00;99.90;;;;;;4946903;29;20489;-82
2021/09/05 03:49:47;;;;;;;10.77;9.70;;;14.00;99.90;;;;;;4946823;29;20470;-82
2021/09/05 03:52:15;;;;;;;10.50;9.40;;;14.00;99.90;;;;;;4945520;29;20454;-82
2021/09/05 03:54:41;;;;;;;10.07;8.13;;;14.00;99.90;;;;;;4944893;29;20493;-82
2021/09/05 03:57:08;;;;;;;9.57;8.73;;;14.00;99.90;;;;;;4946079;29;20450;-82
2021/09/05 03:59:35;;;;;;;9.53;8.73;;;14.00;99.90;;;;;;4944957;29;20467;-82
2021/09/05 04:02:01;;;;;;;9.37;8.47;;;14.00;99.90;;;;;;4944298;29;20461;-82
2021/09/05 04:04:29;;;;;;;9.97;9.07;;;13.90;99.90;;;;;;4944199;29;21035;-82
2021/09/05 04:07:02;;;;;;;8.70;7.90;;;13.90;99.90;;;;;;4943515;29;20499;-82
2021/09/05 04:12:20;;;;;;;10.03;8.73;;;13.90;99.90;;;;;;4941734;29;20477;-82
2021/09/05 04:14:47;;;;;;;10.57;9.43;;;13.90;99.90;;;;;;4943252;29;20480;-81
2021/09/05 04:17:14;;;;;;;11.63;10.43;;;13.90;99.90;;;;;;4943128;29;20460;-82
2021/09/05 04:19:42;;;;;;;11.70;10.50;;;13.90;99.90;;;;;;4944162;29;20479;-81
2021/09/05 04:22:08;;;;;;;10.53;9.47;;;13.90;99.90;;;;;;4942998;29;20454;-82
2021/09/05 04:24:35;;;;;;;10.23;9.33;;;13.90;99.90;;;;;;4943530;29;20469;-82
2021/09/05 04:27:06;;;;;;;11.53;9.70;;;13.90;99.90;;;;;;4925492;29;20485;-82
2021/09/05 04:29:34;;;;;;;11.50;10.40;;;13.80;99.90;;;;;;4943230;29;20462;-82
2021/09/05 04:32:01;;;;;;;11.83;10.73;;;13.90;99.90;;;;;;4959563;29;20453;-82
2021/09/05 04:34:28;;;;;;;12.30;11.03;;;13.90;99.90;;;;;;4963855;28;20491;-82
2021/09/05 04:36:56;;;;;;;14.83;12.50;;;13.80;99.90;;;;;;4965235;29;20459;-82
2021/09/05 04:39:23;;;;;;;12.93;11.63;;;13.80;99.90;;;;;;4966340;28;20458;-82
2021/09/05 04:41:49;;;;;;;17.17;13.83;;;13.80;99.90;;;;;;4965647;29;20807;-82
2021/09/05 04:44:16;;;;;;;13.90;12.50;;;13.80;99.90;;;;;;4965788;28;20479;-83
2021/09/05 04:46:48;;;;;;;18.47;15.60;;;13.80;99.90;;;;;;4965578;28;20461;-82
2021/09/05 04:49:15;;;;;;;13.00;11.67;;;13.80;99.90;;;;;;4965563;29;20522;-82
2021/09/05 04:52:10;;;;;;;14.37;12.63;;;13.80;99.90;;;;;;4963947;28;20501;-82
2021/09/05 04:54:38;;;;;;;15.00;13.50;;;13.80;99.90;;;;;;4964392;28;20587;-81
2021/09/05 04:57:05;;;;;;;13.27;12.07;;;13.80;99.90;;;;;;4964290;29;20484;-82
2021/09/05 04:59:35;;;;;;;14.23;12.70;;;13.80;99.90;;;;;;4963691;29;20452;-83
2021/09/05 05:02:02;;;;;;;14.03;12.73;;;13.80;99.90;;;;;;4962549;29;20492;-82
2021/09/05 05:04:29;;;;;;;14.53;13.23;;;13.80;99.90;;;;;;4962114;29;20470;-82
2021/09/05 05:06:56;;;;;;;14.50;12.73;;;13.80;99.90;;;;;;4964293;28;20451;-82
2021/09/05 05:09:22;;;;;;;14.97;13.47;;;13.80;99.90;;;;;;4965855;29;20457;-82
2021/09/05 05:11:50;;;;;;;13.20;11.90;;;13.90;99.90;;;;;;4964344;29;20465;-82
2021/09/05 05:14:17;;;;;;;14.17;12.77;;;13.90;99.90;;;;;;4965061;29;20500;-81
2021/09/05 05:16:48;;;;;;;13.97;12.43;;;13.90;99.90;;;;;;4964775;29;20457;-82
2021/09/05 05:19:15;;;;;;;12.77;11.57;;;13.90;99.90;;;;;;4965180;29;20458;-82
2021/09/05 05:21:42;;;;;;;12.63;11.37;;;13.90;99.90;;;;;;4964309;28;20446;-81
2021/09/05 05:24:09;;;;;;;14.40;13.00;;;14.00;99.90;;;;;;4964629;29;20477;-81
2021/09/05 05:26:36;;;;;;;12.10;10.90;;;14.00;99.90;;;;;;4964093;29;20453;-81
2021/09/05 05:29:04;;;;;;;13.00;11.80;;;14.00;99.90;;;;;;4963704;29;20516;-82
2021/09/05 05:31:31;;;;;;;13.30;12.00;;;14.00;99.90;;;;;;4963607;28;20463;-82
2021/09/05 05:33:58;;;;;;;12.83;11.70;;;14.00;99.90;;;;;;4964141;29;20504;-81
2021/09/05 05:36:24;;;;;;;15.83;12.27;;;14.00;99.90;;;;;;4963277;29;20458;-82
2021/09/05 05:38:51;;;;;;;14.13;12.73;;;14.00;99.90;;;;;;4963857;28;20508;-82
2021/09/05 05:41:19;;;;;;;14.63;12.80;;;14.00;99.90;;;;;;4963124;29;21004;-82
2021/09/05 05:43:46;;;;;;;14.70;11.20;;;14.10;99.90;;;;;;4962862;29;20484;-81
2021/09/05 05:46:15;;;;;;;15.00;13.50;;;14.10;99.90;;;;;;4964198;29;20468;-81
2021/09/05 05:48:42;;;;;;;15.23;13.37;;;14.10;99.90;;;;;;4964052;28;20493;-82
2021/09/05 05:51:08;;;;;;;13.13;11.90;;;14.20;99.90;;;;;;4964673;28;20469;-82
2021/09/05 05:53:35;;;;;;;13.43;12.30;;;14.20;99.90;;;;;;4964806;28;20504;-82
2021/09/05 05:56:02;;;;;;;14.43;13.13;;;14.20;99.90;;;;;;4965756;29;20456;-81
2021/09/05 05:58:29;;;;;;;13.83;12.63;;;14.30;99.90;;;;;;4964528;28;20940;-82
2021/09/05 06:00:56;;;;;;;14.00;12.83;;;14.30;99.90;;;;;;4965578;29;20552;-82
2021/09/05 06:03:24;;;;;;;15.10;13.53;;;14.40;99.90;;;;;;4965748;29;20483;-82
2021/09/05 06:05:51;;;;;;;14.57;13.17;;;14.40;99.90;;;;;;4967939;28;20454;-83
2021/09/05 06:08:19;;;;;;;14.60;13.30;;;14.40;99.90;;;;;;4968702;29;20492;-82
2021/09/05 06:10:46;;;;;;;12.50;11.47;;;14.50;99.90;;;;;;4966200;29;20457;-82
2021/09/05 06:13:15;;;;;;;12.97;11.67;;;14.60;99.90;;;;;;4965621;28;20456;-82
2021/09/05 06:15:42;;;;;;;13.60;12.40;;;14.60;99.90;;;;;;4965427;29;20455;-82
2021/09/05 06:18:08;;;;;;;12.73;11.63;;;14.70;99.90;;;;;;4964604;28;20833;-82
2021/09/05 06:20:38;;;;;;;13.20;11.90;;;14.80;99.90;;;;;;4966528;28;20459;-82
2021/09/05 06:23:10;;;;;;;12.30;10.87;;;14.90;99.90;;;;;;4964334;29;20461;-82
2021/09/05 06:25:37;;;;;;;13.60;12.33;;;15.00;99.90;;;;;;4967077;29;20500;-82
2021/09/05 06:28:04;;;;;;;14.50;13.10;;;15.10;99.90;;;;;;4965426;29;20862;-82
2021/09/05 06:30:30;;;;;;;12.60;11.50;;;15.20;99.90;;;;;;4965389;29;20459;-81
2021/09/05 06:32:58;;;;;;;12.73;11.50;;;15.30;99.90;;;;;;4965485;28;20459;-83
2021/09/05 06:35:26;;;;;;;13.73;12.37;;;15.40;99.90;;;;;;4965430;28;20552;-83
2021/09/05 06:38:21;;;;;;;13.10;11.93;;;15.50;99.90;;;;;;4964742;28;20458;-83
2021/09/05 06:40:53;;;;;;;14.40;12.73;;;15.70;99.90;;;;;;4948572;29;20466;-83
2021/09/05 06:43:20;;;;;;;13.87;10.90;;;15.80;99.90;;;;;;4965917;29;20483;-84
2021/09/05 06:45:47;;;;;;;12.30;11.10;;;15.80;99.90;;;;;;4966286;29;20459;-83
2021/09/05 06:48:23;;;;;;;12.80;11.50;;;15.90;99.90;;;;;;4966755;29;20494;-83
2021/09/05 06:50:50;;;;;;;13.50;11.90;;;16.10;99.90;;;;;;4968248;29;20459;-83
2021/09/05 06:53:18;;;;;;;12.53;11.40;;;16.20;99.90;;;;;;4966751;28;20635;-84
2021/09/05 06:55:45;;;;;;;12.37;11.13;;;16.30;99.90;;;;;;4966820;29;20459;-84
2021/09/05 06:58:11;;;;;;;11.63;10.20;;;16.40;99.90;;;;;;4970272;28;20471;-83
2021/09/05 07:00:38;;;;;;;10.90;9.77;;;16.50;99.90;;;;;;4975284;29;20461;-83
2021/09/05 07:03:05;;;;;;;12.47;11.27;;;16.60;99.90;;;;;;4969282;29;21192;-83
2021/09/05 07:05:34;;;;;;;11.20;10.00;;;16.70;99.90;;;;;;4968412;28;20455;-83
2021/09/05 07:08:00;;;;;;;10.50;9.60;;;16.90;99.90;;;;;;4967661;28;20489;-84
2021/09/05 07:10:29;;;;;;;13.10;9.57;;;17.00;99.90;;;;;;4967235;29;20459;-84
2021/09/05 07:12:55;;;;;;;12.17;11.27;;;17.20;99.90;;;;;;4966498;29;20547;-84
2021/09/05 07:15:23;;;;;;;11.83;10.73;;;17.30;99.90;;;;;;4966217;29;20490;-83
2021/09/05 07:17:49;;;;;;;11.63;10.53;;;17.40;99.90;;;;;;4965931;29;20535;-84
2021/09/05 07:20:16;;;;;;;10.93;9.87;;;17.50;99.90;;;;;;4964546;28;20463;-84
2021/09/05 07:22:43;;;;;;;10.03;9.23;;;17.60;99.90;;;;;;4965355;29;20451;-84
2021/09/05 07:25:10;;;;;;;10.77;9.70;;;17.70;99.90;;;;;;4963987;28;20471;-84
2021/09/05 07:27:43;;;;;;;10.50;9.60;;;17.90;99.90;;;;;;4964767;29;20453;-84
2021/09/05 07:30:11;;;;;;;10.17;9.27;;;17.90;99.90;;;;;;4964774;28;20815;-84
2021/09/05 07:32:37;;;;;;;11.97;9.33;;;18.00;99.90;;;;;;4967544;28;20467;-84
2021/09/05 07:35:05;;;;;;;8.90;8.10;;;18.10;99.90;;;;;;4966547;28;20473;-83
2021/09/05 07:37:32;;;;;;;10.50;9.50;;;18.20;99.90;;;;;;4966607;29;20971;-83
2021/09/05 07:39:58;;;;;;;9.70;8.80;;;18.30;99.90;;;;;;4966268;28;20455;-83
2021/09/05 07:42:25;;;;;;;11.07;10.13;;;18.30;99.90;;;;;;4965167;29;20456;-84
2021/09/05 07:44:53;;;;;;;11.57;10.47;;;18.40;99.90;;;;;;4966517;29;20491;-84
2021/09/05 07:47:21;;;;;;;9.43;8.53;;;18.50;99.90;;;;;;4966904;29;20466;-83
2021/09/05 07:49:47;;;;;;;10.63;9.60;;;18.50;99.90;;;;;;4966786;29;20492;-83
2021/09/05 07:52:14;;;;;;;10.63;9.47;;;18.60;99.90;;;;;;4966418;29;20445;-83
2021/09/05 07:54:41;;;;;;;11.30;10.20;;;18.70;99.90;;;;;;4964774;28;20484;-84
2021/09/05 07:57:08;;;;;;;10.00;9.03;;;18.80;99.90;;;;;;4963317;29;20463;-83
2021/09/05 07:59:35;;;;;;;12.13;10.20;;;18.90;99.90;;;;;;4962451;29;20449;-84
2021/09/05 08:02:04;;;;;;;11.03;8.93;;;19.00;99.90;;;;;;4961272;29;20460;-84
2021/09/05 08:04:31;;;;;;;9.73;8.83;;;19.10;99.90;;;;;;4961908;29;20484;-84
2021/09/05 08:06:59;;;;;;;10.20;9.20;;;19.10;99.90;;;;;;4962413;29;20911;-85
2021/09/05 08:09:25;;;;;;;10.00;9.00;;;19.20;99.90;;;;;;4962445;28;20512;-85
2021/09/05 08:11:52;;;;;;;10.40;9.30;;;19.30;99.90;;;;;;4961051;29;20463;-85
2021/09/05 08:14:25;;;;;;;9.20;8.30;;;19.40;99.90;;;;;;4959473;29;20476;-85
2021/09/05 08:24:14;;;;;;;8.97;7.63;;;19.80;99.90;;;;;;4904955;23;20498;-85
2021/09/05 08:29:27;;;;;;;8.57;7.70;;;20.00;99.90;;;;;;4940550;29;20503;-84
2021/09/05 08:32:04;;;;;;;;;;;;;;;;;;;;;
2021/09/05 08:38:01;;;;;;;8.77;7.93;;;20.40;99.90;;;;;;4938298;29;20530;-85
2021/09/05 08:46:38;;;;;;;8.03;7.30;;;20.70;99.90;;;;;;4938009;29;20460;-84
2021/09/05 08:49:08;;;;;;;8.27;7.50;;;20.80;99.90;;;;;;4942081;29;20495;-86
2021/09/05 08:51:35;;;;;;;9.67;8.67;;;20.80;99.90;;;;;;4944368;29;20457;-85
2021/09/05 08:54:06;;;;;;;10.57;8.30;;;20.90;99.90;;;;;;4941552;29;20480;-86
2021/09/05 08:56:33;;;;;;;7.77;7.07;;;21.00;99.90;;;;;;4943584;29;20452;-84
2021/09/05 08:59:01;;;;;;;8.17;7.47;;;21.10;99.90;;;;;;4942650;29;20539;-84
2021/09/05 09:01:34;;;;;;;9.00;8.10;;;21.10;99.90;;;;;;4942620;29;20460;-84
2021/09/05 09:04:06;;;;;;;9.07;8.27;;;21.20;99.90;;;;;;4943813;29;20470;-85
2021/09/05 09:06:43;;;;;;;7.07;6.43;;;21.30;99.90;;;;;;4944494;29;20463;-84
2021/09/05 09:09:16;;;;;;;8.03;7.23;;;21.40;99.90;;;;;;4944629;29;20484;-84
2021/09/05 09:11:52;;;;;;;7.20;6.57;;;21.50;99.90;;;;;;4944143;29;20453;-84
2021/09/05 09:14:22;;;;;;;6.90;6.20;;;21.70;99.90;;;;;;4942797;29;20472;-84
2021/09/05 09:16:49;;;;;;;7.83;7.13;;;21.80;99.90;;;;;;4944315;29;20452;-84
2021/09/05 09:19:27;;;;;;;6.63;6.13;;;21.90;99.90;;;;;;4944156;29;20458;-84
2021/09/05 09:21:55;;;;;;;7.73;7.13;;;22.00;99.70;;;;;;4942683;29;20456;-84
2021/09/05 09:24:32;;;;;;;10.70;5.47;;;22.20;97.30;;;;;;4942938;29;20499;-84
2021/09/05 09:27:07;;;;;;;7.23;6.50;;;22.10;98.00;;;;;;4941673;29;20457;-84
2021/09/05 09:29:36;;;;;;;6.63;6.13;;;22.20;97.70;;;;;;4945015;29;20480;-84
2021/09/05 09:32:14;;;;;;;7.60;6.90;;;22.40;97.90;;;;;;4949001;29;20449;-84
2021/09/05 09:34:41;;;;;;;7.53;6.80;;;22.50;97.00;;;;;;4949887;29;20456;-84
2021/09/05 09:37:16;;;;;;;7.27;6.60;;;22.60;96.40;;;;;;4948748;29;20457;-84
2021/09/05 09:39:45;;;;;;;7.40;6.80;;;22.70;96.70;;;;;;4950257;28;20976;-84
2021/09/05 09:42:30;;;;;;;6.53;5.93;;;22.80;95.80;;;;;;4948692;29;20456;-84
2021/09/05 09:45:43;;;;;;;7.13;6.47;;;23.00;96.20;;;;;;4954555;29;20517;-83
2021/09/05 09:51:42;;;;;;;6.00;5.40;;;23.40;95.30;;;;;;4941574;29;20453;-85
2021/09/05 09:54:27;;;;;;;7.40;6.70;;;23.70;94.70;;;;;;4946115;29;20509;-85
2021/09/05 10:00:26;;;;;;;7.20;6.60;;;24.10;92.90;;;;;;4850622;29;20899;-84
2021/09/05 10:02:56;;;;;;;6.50;5.93;;;24.20;91.70;;;;;;4856055;29;20550;-85
2021/09/05 10:05:36;;;;;;;7.33;6.63;;;24.30;91.80;;;;;;4850331;29;20454;-85
2021/09/05 10:08:22;;;;;;;5.80;5.30;;;24.40;91.50;;;;;;4864155;29;20450;-85
2021/09/05 10:11:22;;;;;;;5.77;5.27;;;24.40;90.50;;;;;;4932774;29;20484;-85
2021/09/05 10:14:52;;;;;;;6.97;6.37;;;24.50;91.70;;;;;;4953360;29;20498;-86
2021/09/05 10:17:57;;;;;;;7.40;6.67;;;24.60;91.80;;;;;;4952323;29;20515;-84
2021/09/05 10:21:06;;;;;;;5.67;5.27;;;24.80;91.30;;;;;;4872865;29;20513;-84
2021/09/05 11:09:48;;;;;;;5.40;4.60;;;28.90;70.30;;;;;;4738163;29;20499;-84
2021/09/05 11:12:33;;;;;;;5.13;4.73;;;29.50;67.90;;;;;;4825904;29;20566;-85
2021/09/05 11:15:02;;;;;;;5.87;5.40;;;30.00;65.20;;;;;;4890627;29;20475;-86
2021/09/05 11:17:31;;;;;;;5.43;5.03;;;30.40;67.10;;;;;;4923062;29;20462;-85
2021/09/05 11:20:00;;;;;;;5.33;4.83;;;31.00;70.30;;;;;;4925927;29;20448;-87
2021/09/05 11:22:32;;;;;;;6.63;5.30;;;31.50;65.00;;;;;;4924408;29;20444;-84
2021/09/05 11:25:16;;;;;;;5.23;4.93;;;32.00;63.50;;;;;;4924460;29;20486;-85
2021/09/05 11:27:50;;;;;;;5.40;4.90;;;32.30;59.80;;;;;;4922318;29;20460;-84
2021/09/05 11:30:18;;;;;;;4.13;3.83;;;32.60;62.50;;;;;;4924244;29;20487;-85
2021/09/05 11:32:44;;;;;;;5.37;4.97;;;33.00;60.00;;;;;;4923203;29;20461;-86
2021/09/05 11:35:13;;;;;;;4.50;4.20;;;33.40;58.60;;;;;;4923641;29;20831;-85
2021/09/05 11:37:42;;;;;;;4.23;3.93;;;33.70;51.20;;;;;;4923645;29;20458;-85
2021/09/05 11:40:12;;;;;;;5.87;5.27;;;34.00;52.00;;;;;;4923264;29;20526;-86
2021/09/05 11:42:44;;;;;;;4.83;4.43;;;34.30;53.00;;;;;;4923873;29;20462;-87
2021/09/05 11:45:12;;;;;;;4.63;4.27;;;34.30;47.50;;;;;;4923930;29;20817;-86
2021/09/05 11:47:39;;;;;;;5.43;5.03;;;34.40;49.30;;;;;;4945544;29;20446;-85
2021/09/05 11:50:07;;;;;;;5.60;5.10;;;34.60;50.00;;;;;;4944784;28;20457;-85
2021/09/05 11:52:37;;;;;;;5.57;5.13;;;34.80;48.20;;;;;;4948442;29;20444;-85
2021/09/05 11:55:06;;;;;;;5.07;4.57;;;35.10;49.30;;;;;;4943830;29;20496;-85
2021/09/05 11:57:36;;;;;;;4.90;4.50;;;35.40;47.60;;;;;;4943841;29;20457;-84
2021/09/05 12:00:06;;;;;;;5.43;5.03;;;35.30;45.80;;;;;;4944529;29;20490;-85
2021/09/05 12:02:34;;;;;;;5.00;4.60;;;35.00;44.70;;;;;;4942804;29;20454;-85
2021/09/05 12:05:02;;;;;;;6.00;5.50;;;35.10;48.70;;;;;;4942569;29;20489;-86
2021/09/05 12:07:30;;;;;;;5.57;4.90;;;35.40;46.40;;;;;;4944535;29;20454;-86
2021/09/05 12:10:09;;;;;;;5.30;4.90;;;35.00;44.10;;;;;;4943302;29;20454;-86
2021/09/05 12:12:38;;;;;;;4.87;4.57;;;35.10;45.20;;;;;;4940762;29;20460;-86
2021/09/05 12:15:16;;;;;;;4.80;4.40;;;34.90;44.30;;;;;;4941422;29;20489;-84
2021/09/05 12:17:48;;;;;;;4.90;4.60;;;34.30;45.30;;;;;;4941894;29;20454;-86
2021/09/05 12:20:16;;;;;;;5.20;4.90;;;34.50;45.60;;;;;;4939422;29;20884;-85
2021/09/05 12:22:45;;;;;;;5.27;4.83;;;35.10;46.40;;;;;;4937471;29;20510;-85
2021/09/05 12:25:14;;;;;;;4.80;4.40;;;35.80;46.40;;;;;;4940202;29;20488;-85
2021/09/05 12:27:57;;;;;;;4.83;4.53;;;36.50;46.00;;;;;;4943705;29;20461;-85
2021/09/05 12:30:25;;;;;;;5.33;4.93;;;37.40;44.30;;;;;;4942648;29;20454;-85
2021/09/05 12:33:13;;;;;;;4.77;4.47;;;38.20;41.20;;;;;;4944574;29;20460;-85
2021/09/05 12:35:42;;;;;;;5.20;4.80;;;38.80;41.80;;;;;;4945111;29;20533;-85
2021/09/05 12:38:10;;;;;;;5.17;4.87;;;39.30;39.50;;;;;;4944123;29;20454;-86
2021/09/05 12:40:39;;;;;;;4.67;4.27;;;39.70;38.90;;;;;;4944914;29;20493;-85
2021/09/05 12:43:07;;;;;;;6.00;5.50;;;39.80;36.70;;;;;;4944989;29;20445;-85
2021/09/05 12:45:35;;;;;;;5.07;4.67;;;39.30;36.50;;;;;;4944998;29;20465;-84
2021/09/05 12:48:12;;;;;;;5.57;5.13;;;38.40;37.10;;;;;;4945109;29;20458;-86
2021/09/05 12:50:39;;;;;;;5.47;5.07;;;38.40;40.60;;;;;;4944418;29;20972;-86
2021/09/05 12:53:15;;;;;;;4.80;4.50;;;38.60;39.70;;;;;;4945665;29;20464;-85
2021/09/05 12:55:42;;;;;;;5.57;5.03;;;38.90;36.70;;;;;;4944682;29;20453;-86
2021/09/05 12:58:11;;;;;;;4.80;4.50;;;39.00;37.20;;;;;;4945432;29;20456;-84
2021/09/05 13:00:38;;;;;;;5.37;4.87;;;39.00;37.30;;;;;;4944835;29;20486;-86
2021/09/05 13:03:05;;;;;;;5.10;4.80;;;39.10;36.40;;;;;;4944569;29;20509;-86
2021/09/05 13:05:33;;;;;;;4.67;4.27;;;39.40;38.30;;;;;;4944679;29;20461;-85
2021/09/05 13:08:00;;;;;;;5.47;5.17;;;39.60;36.50;;;;;;4945401;29;20457;-86
2021/09/05 13:10:29;;;;;;;7.27;6.77;;;39.20;34.50;;;;;;4945098;29;20454;-85
2021/09/05 13:12:56;;;;;;;5.20;4.80;;;38.80;34.60;;;;;;4945106;29;20505;-85
2021/09/05 13:15:25;;;;;;;6.37;5.77;;;38.90;34.60;;;;;;4945512;29;20477;-82
2021/09/05 13:17:52;;;;;;;5.00;4.60;;;38.80;35.60;;;;;;4945527;29;20456;-83
2021/09/05 13:20:19;;;;;;;6.03;5.63;;;39.00;36.20;;;;;;4945048;29;20501;-85
2021/09/05 13:22:47;;;;;;;5.63;4.77;;;39.20;34.30;;;;;;4946274;29;20457;-86
2021/09/05 13:25:14;;;;;;;5.60;5.20;;;39.30;35.50;;;;;;4945345;29;20482;-85
2021/09/05 13:27:41;;;;;;;4.70;4.40;;;39.60;35.80;;;;;;4946783;29;20480;-86
2021/09/05 13:30:10;;;;;;;4.83;4.53;;;40.00;35.20;;;;;;4947676;29;20477;-84
2021/09/05 13:32:38;;;;;;;5.63;5.23;;;40.40;35.10;;;;;;4946337;29;20449;-85
2021/09/05 13:35:06;;;;;;;4.70;4.40;;;40.90;33.50;;;;;;4946711;29;20492;-86
2021/09/05 13:37:34;;;;;;;5.13;4.73;;;41.20;34.50;;;;;;4945867;29;20453;-84
2021/09/05 13:40:01;;;;;;;5.00;4.60;;;41.50;32.80;;;;;;4946843;29;20544;-86
2021/09/05 13:42:28;;;;;;;4.47;4.17;;;41.70;30.80;;;;;;4947070;29;20465;-82
2021/09/05 13:44:55;;;;;;;6.10;5.70;;;41.20;29.90;;;;;;4946921;29;20858;-82
2021/09/05 13:47:24;;;;;;;5.10;4.70;;;40.70;31.00;;;;;;4947112;29;20465;-82
2021/09/05 13:49:52;;;;;;;5.27;4.87;;;40.60;33.30;;;;;;4947365;29;20445;-83
2021/09/05 13:52:19;;;;;;;4.77;4.40;;;40.40;32.50;;;;;;4947774;29;20468;-83
2021/09/05 13:54:46;;;;;;;5.87;5.37;;;40.00;33.00;;;;;;4979589;23;20512;-83
2021/09/05 13:57:13;;;;;;;5.13;4.67;;;39.90;33.10;;;;;;4968156;29;20444;-84
2021/09/05 13:59:40;;;;;;;5.10;4.70;;;38.20;32.20;;;;;;4968142;29;20463;-84
2021/09/05 14:02:08;;;;;;;5.50;5.10;;;36.70;34.70;;;;;;4967639;28;20465;-84
2021/09/05 14:04:35;;;;;;;5.13;4.77;;;35.90;35.60;;;;;;4967898;28;20510;-85
2021/09/05 14:07:03;;;;;;;5.40;4.90;;;35.50;37.20;;;;;;4969358;29;20453;-85